Sitc Xiamen — 3ELU — position and weather

sailwx.info

Track history (hours):
 
Tides and Currents Weather Stations Pressure Air Temp Water Temp Dewpoint Dewpoint Depression Visibility Wind Speed Wind Dir Waves Ship Positions

Sitc Xiamen

Last reported at 2015-Jan-25 13:21 UTC. Time now 2015-Jan-28 12:09 UTC.
Position N 33°37' E 129°42'.

Length 145 m; draft 7.8 m.

Type: Ship (hazmat cat A). MMSI: 355090000.

Date/timePositionNaut miles runAvg speedWind from/ knotsBaromVisibWave heightAir tempDewpointWater temp
2015-Jan-25 13:21N 33°37' E 129°42'35514.2
2015-Jan-24 12:24N 31°18' E 123°15'4114.6
2015-Jan-24 09:33N 31°06' E 122°29'1414.2
2015-Jan-24 08:33N 31°09' E 122°13'1414.0
2015-Jan-24 07:33N 31°15' E 121°58'1211.7
2015-Jan-24 06:33N 31°18' E 121°45'6 5.8
2015-Jan-24 05:33N 31°20' E 121°39'0 0.0
2015-Jan-24 04:30N 31°20' E 121°39'0 0.0
2015-Jan-24 03:33N 31°20' E 121°39'0 0.0
2015-Jan-24 02:33N 31°20' E 121°39'0 0.0
2015-Jan-24 01:33N 31°20' E 121°39'0 0.0
2015-Jan-24 00:33N 31°20' E 121°39'0 0.0
2015-Jan-23 23:33N 31°20' E 121°39'0 0.0
2015-Jan-23 22:33N 31°20' E 121°39'0 0.0
2015-Jan-23 21:33N 31°20' E 121°39'0 0.0
2015-Jan-23 20:33N 31°20' E 121°39'0 0.0
2015-Jan-23 19:33N 31°20' E 121°39'0 0.3
2015-Jan-23 18:33N 31°21' E 121°39'4 4.0
2015-Jan-23 17:33N 31°19' E 121°43'1110.8
2015-Jan-23 16:33N 31°16' E 121°55'1110.8
2015-Jan-23 15:33N 31°13' E 122°07'1010.1
2015-Jan-23 14:33N 31°07' E 122°17'1312.2
2015-Jan-23 13:31N 31°07' E 122°32'10 1.6
2015-Jan-23 07:31N 31°10' E 122°43'39910.7
2015-Jan-21 18:10N 33°43' E 129°59'913.8
2015-Jan-21 17:33N 33°48' E 130°08'3812.7
2015-Jan-21 14:33N 34°01' E 130°51'23 1.5
2015-Jan-20 22:26N 33°55' E 130°23'1213.0
2015-Jan-20 21:33N 33°45' E 130°17'8 8.0
2015-Jan-20 20:33N 33°39' E 130°24'1 0.5
2015-Jan-20 19:32N 33°39' E 130°24'0 0.0
2015-Jan-20 18:32N 33°39' E 130°24'0 0.0
2015-Jan-20 17:32N 33°39' E 130°24'0 0.0
2015-Jan-20 16:32N 33°39' E 130°24'0 0.0
2015-Jan-20 15:32N 33°39' E 130°24'0 0.0
2015-Jan-20 14:32N 33°39' E 130°24'0 0.0
2015-Jan-20 13:32N 33°39' E 130°24'0 0.0
2015-Jan-20 12:32N 33°39' E 130°24'0 0.0
2015-Jan-20 11:32N 33°39' E 130°24'49512.0
2015-Jan-18 18:11N 38°34' E 122°11'1114.6
2015-Jan-18 17:26N 38°43' E 122°04'7 0.7
2015-Jan-18 06:12N 38°44' E 121°54'1014.3
2015-Jan-18 05:32N 38°35' E 121°52'4514.4
2015-Jan-18 02:27N 37°52' E 121°35'1314.4
2015-Jan-18 01:33N 37°40' E 121°29'7 7.2
2015-Jan-18 00:32N 37°35' E 121°23'0 0.0
2015-Jan-17 23:29N 37°35' E 121°23'0 0.0
2015-Jan-17 22:29N 37°35' E 121°23'0 0.0
2015-Jan-17 21:32N 37°35' E 121°23'0 0.0
2015-Jan-17 20:32N 37°35' E 121°23'0 0.0
2015-Jan-17 19:29N 37°35' E 121°23'0 0.0
2015-Jan-17 18:32N 37°35' E 121°23'0 0.0
2015-Jan-17 17:29N 37°35' E 121°23'0 0.0
2015-Jan-17 16:29N 37°35' E 121°23'0 0.3
2015-Jan-17 15:33N 37°35' E 121°23'6 6.3
2015-Jan-17 14:33N 37°40' E 121°27'1 0.7
2015-Jan-17 13:33N 37°41' E 121°27'0 0.4
2015-Jan-17 12:33N 37°41' E 121°27'0 0.3
2015-Jan-17 11:33N 37°40' E 121°27'0 0.3
2015-Jan-17 10:33N 37°40' E 121°27'3 3.4
2015-Jan-17 09:33N 37°42' E 121°23'1514.8
2015-Jan-17 08:33N 37°52' E 121°09'1615.2
2015-Jan-17 07:32N 37°59' E 120°52'14115.6
2015-Jan-16 22:30N 38°54' E 118°07'1111.9
2015-Jan-16 21:33N 38°57' E 117°53'5 4.5
2015-Jan-16 20:30N 38°59' E 117°47'0 0.0
2015-Jan-16 19:30N 38°59' E 117°47'0 0.0
2015-Jan-16 18:24N 38°59' E 117°47'0 0.0
2015-Jan-16 17:30N 38°59' E 117°47'0 0.0
2015-Jan-16 16:30N 38°59' E 117°47'0 0.0
2015-Jan-16 15:30N 38°59' E 117°47'0 0.0
2015-Jan-16 14:24N 38°59' E 117°47'0 0.0
2015-Jan-16 13:30N 38°59' E 117°47'0 0.0
2015-Jan-16 12:30N 38°59' E 117°47'0 0.0
2015-Jan-16 11:30N 38°59' E 117°47'0 0.0
2015-Jan-16 10:30N 38°59' E 117°47'0 0.0
2015-Jan-16 09:30N 38°59' E 117°47'0 0.0
2015-Jan-16 08:24N 38°59' E 117°47'4 5.0
2015-Jan-16 07:33N 38°57' E 117°52'1310.7
2015-Jan-16 06:21N 38°55' E 118°08'87 5.9
2015-Jan-15 15:33N 38°18' E 119°49'1714.2
2015-Jan-15 14:23N 38°11' E 120°08'1214.4
2015-Jan-15 13:32N 38°06' E 120°23'  
Track history (hours):
 
Tides and Currents Weather Stations Pressure Air Temp Water Temp Dewpoint Dewpoint Depression Visibility Wind Speed Wind Dir Waves Ship Positions

Sitc Xiamen

Last reported at 2015-Jan-25 13:21 UTC. Time now 2015-Jan-28 12:09 UTC.
Position N 33°37' E 129°42'.

Length 145 m; draft 7.8 m.

Type: Ship (hazmat cat A). MMSI: 355090000.

Date/timePositionNaut miles runAvg speedWind from/ knotsBaromVisibWave heightAir tempDewpointWater temp
2015-Jan-25 13:21N 33°37' E 129°42'35514.2
2015-Jan-24 12:24N 31°18' E 123°15'4114.6
2015-Jan-24 09:33N 31°06' E 122°29'1414.2
2015-Jan-24 08:33N 31°09' E 122°13'1414.0
2015-Jan-24 07:33N 31°15' E 121°58'1211.7
2015-Jan-24 06:33N 31°18' E 121°45'6 5.8
2015-Jan-24 05:33N 31°20' E 121°39'0 0.0
2015-Jan-24 04:30N 31°20' E 121°39'0 0.0
2015-Jan-24 03:33N 31°20' E 121°39'0 0.0
2015-Jan-24 02:33N 31°20' E 121°39'0 0.0
2015-Jan-24 01:33N 31°20' E 121°39'0 0.0
2015-Jan-24 00:33N 31°20' E 121°39'0 0.0
2015-Jan-23 23:33N 31°20' E 121°39'0 0.0
2015-Jan-23 22:33N 31°20' E 121°39'0 0.0
2015-Jan-23 21:33N 31°20' E 121°39'0 0.0
2015-Jan-23 20:33N 31°20' E 121°39'0 0.0
2015-Jan-23 19:33N 31°20' E 121°39'0 0.3
2015-Jan-23 18:33N 31°21' E 121°39'4 4.0
2015-Jan-23 17:33N 31°19' E 121°43'1110.8
2015-Jan-23 16:33N 31°16' E 121°55'1110.8
2015-Jan-23 15:33N 31°13' E 122°07'1010.1
2015-Jan-23 14:33N 31°07' E 122°17'1312.2
2015-Jan-23 13:31N 31°07' E 122°32'10 1.6
2015-Jan-23 07:31N 31°10' E 122°43'39910.7
2015-Jan-21 18:10N 33°43' E 129°59'913.8
2015-Jan-21 17:33N 33°48' E 130°08'3812.7
2015-Jan-21 14:33N 34°01' E 130°51'23 1.5
2015-Jan-20 22:26N 33°55' E 130°23'1213.0
2015-Jan-20 21:33N 33°45' E 130°17'8 8.0
2015-Jan-20 20:33N 33°39' E 130°24'1 0.5
2015-Jan-20 19:32N 33°39' E 130°24'0 0.0
2015-Jan-20 18:32N 33°39' E 130°24'0 0.0
2015-Jan-20 17:32N 33°39' E 130°24'0 0.0
2015-Jan-20 16:32N 33°39' E 130°24'0 0.0
2015-Jan-20 15:32N 33°39' E 130°24'0 0.0
2015-Jan-20 14:32N 33°39' E 130°24'0 0.0
2015-Jan-20 13:32N 33°39' E 130°24'0 0.0
2015-Jan-20 12:32N 33°39' E 130°24'0 0.0
2015-Jan-20 11:32N 33°39' E 130°24'49512.0
2015-Jan-18 18:11N 38°34' E 122°11'1114.6
2015-Jan-18 17:26N 38°43' E 122°04'7 0.7
2015-Jan-18 06:12N 38°44' E 121°54'1014.3
2015-Jan-18 05:32N 38°35' E 121°52'4514.4
2015-Jan-18 02:27N 37°52' E 121°35'1314.4
2015-Jan-18 01:33N 37°40' E 121°29'7 7.2
2015-Jan-18 00:32N 37°35' E 121°23'0 0.0
2015-Jan-17 23:29N 37°35' E 121°23'0 0.0
2015-Jan-17 22:29N 37°35' E 121°23'0 0.0
2015-Jan-17 21:32N 37°35' E 121°23'0 0.0
2015-Jan-17 20:32N 37°35' E 121°23'0 0.0
2015-Jan-17 19:29N 37°35' E 121°23'0 0.0
2015-Jan-17 18:32N 37°35' E 121°23'0 0.0
2015-Jan-17 17:29N 37°35' E 121°23'0 0.0
2015-Jan-17 16:29N 37°35' E 121°23'0 0.3
2015-Jan-17 15:33N 37°35' E 121°23'6 6.3
2015-Jan-17 14:33N 37°40' E 121°27'1 0.7
2015-Jan-17 13:33N 37°41' E 121°27'0 0.4
2015-Jan-17 12:33N 37°41' E 121°27'0 0.3
2015-Jan-17 11:33N 37°40' E 121°27'0 0.3
2015-Jan-17 10:33N 37°40' E 121°27'3 3.4
2015-Jan-17 09:33N 37°42' E 121°23'1514.8
2015-Jan-17 08:33N 37°52' E 121°09'1615.2
2015-Jan-17 07:32N 37°59' E 120°52'14115.6
2015-Jan-16 22:30N 38°54' E 118°07'1111.9
2015-Jan-16 21:33N 38°57' E 117°53'5 4.5
2015-Jan-16 20:30N 38°59' E 117°47'0 0.0
2015-Jan-16 19:30N 38°59' E 117°47'0 0.0
2015-Jan-16 18:24N 38°59' E 117°47'0 0.0
2015-Jan-16 17:30N 38°59' E 117°47'0 0.0
2015-Jan-16 16:30N 38°59' E 117°47'0 0.0
2015-Jan-16 15:30N 38°59' E 117°47'0 0.0
2015-Jan-16 14:24N 38°59' E 117°47'0 0.0
2015-Jan-16 13:30N 38°59' E 117°47'0 0.0
2015-Jan-16 12:30N 38°59' E 117°47'0 0.0
2015-Jan-16 11:30N 38°59' E 117°47'0 0.0
2015-Jan-16 10:30N 38°59' E 117°47'0 0.0
2015-Jan-16 09:30N 38°59' E 117°47'0 0.0
2015-Jan-16 08:24N 38°59' E 117°47'4 5.0
2015-Jan-16 07:33N 38°57' E 117°52'1310.7
2015-Jan-16 06:21N 38°55' E 118°08'87 5.9
2015-Jan-15 15:33N 38°18' E 119°49'1714.2
2015-Jan-15 14:23N 38°11' E 120°08'1214.4
2015-Jan-15 13:32N 38°06' E 120°23'  

Dump ship's entire track history